createdAt,value
2018-12-25T00:00:47.778Z,95.50
2018-12-25T00:03:16.200Z,95.40
2018-12-25T00:05:44.625Z,95.50
2018-12-25T00:08:13.148Z,95.50
2018-12-25T00:10:41.571Z,95.70
2018-12-25T00:13:10.017Z,95.50
2018-12-25T00:15:38.443Z,95.90
2018-12-25T00:18:06.903Z,96.10
2018-12-25T00:20:35.405Z,96.40
2018-12-25T00:23:03.862Z,96.50
2018-12-25T00:25:32.335Z,96.90
2018-12-25T00:28:00.798Z,97.10
2018-12-25T00:30:29.432Z,97.50
2018-12-25T00:32:57.854Z,97.40
2018-12-25T00:35:26.301Z,96.90
2018-12-25T00:37:54.731Z,96.50
2018-12-25T00:40:23.167Z,96.50
2018-12-25T00:42:51.608Z,96.40
2018-12-25T00:45:20.042Z,96.70
2018-12-25T00:47:48.489Z,96.70
2018-12-25T00:50:16.973Z,97.20
2018-12-25T00:52:45.446Z,97.40
2018-12-25T00:55:13.877Z,97.70
2018-12-25T00:57:42.312Z,98.10
2018-12-25T01:00:10.752Z,98.10
2018-12-25T01:02:39.189Z,98.30
2018-12-25T01:05:07.639Z,98.10
2018-12-25T01:07:36.073Z,98.10
2018-12-25T01:10:05.356Z,98.20
2018-12-25T01:12:33.847Z,98.20
2018-12-25T01:15:02.279Z,98.40
2018-12-25T01:17:30.786Z,98.40
2018-12-25T01:19:59.300Z,98.40
2018-12-25T01:22:27.748Z,98.50
2018-12-25T01:24:56.172Z,98.50
2018-12-25T01:27:24.624Z,98.50
2018-12-25T01:29:53.060Z,98.80
2018-12-25T01:32:21.484Z,98.60
2018-12-25T01:34:49.927Z,98.50
2018-12-25T01:37:18.387Z,98.50
2018-12-25T01:39:46.920Z,98.60
2018-12-25T01:42:15.418Z,98.20
2018-12-25T01:44:43.861Z,97.50
2018-12-25T01:47:12.347Z,97.00
2018-12-25T01:49:40.791Z,96.70
2018-12-25T01:52:09.240Z,96.80
2018-12-25T01:54:37.673Z,96.70
2018-12-25T01:57:06.396Z,97.00
2018-12-25T01:59:34.821Z,97.40
2018-12-25T02:02:03.273Z,97.60
2018-12-25T02:04:31.699Z,97.70
2018-12-25T02:07:00.134Z,97.80
2018-12-25T02:09:28.573Z,98.00
2018-12-25T02:11:57.000Z,98.30
2018-12-25T02:14:25.466Z,98.50
2018-12-25T02:16:53.959Z,98.50
2018-12-25T02:19:22.379Z,98.50
2018-12-25T02:21:50.828Z,99.00
2018-12-25T02:24:19.263Z,98.60
2018-12-25T02:26:47.726Z,98.70
2018-12-25T02:29:16.157Z,98.80
2018-12-25T02:31:44.618Z,98.90
2018-12-25T02:34:13.047Z,98.10
2018-12-25T02:36:41.467Z,98.10
2018-12-25T02:39:09.920Z,98.00
2018-12-25T02:41:38.355Z,97.80
2018-12-25T02:44:06.891Z,97.80
2018-12-25T02:46:36.926Z,98.40
2018-12-25T02:49:05.372Z,98.20
2018-12-25T02:51:33.859Z,98.20
2018-12-25T02:54:02.289Z,98.40
2018-12-25T02:56:30.797Z,97.90
2018-12-25T02:58:59.229Z,97.40
2018-12-25T03:01:27.683Z,97.10
2018-12-25T03:03:56.104Z,96.80
2018-12-25T03:06:24.528Z,97.30
2018-12-25T03:08:52.972Z,97.50
2018-12-25T03:11:21.406Z,97.80
2018-12-25T03:13:49.834Z,98.20
2018-12-25T03:16:18.283Z,98.60
2018-12-25T03:18:46.714Z,98.20
2018-12-25T03:21:15.214Z,97.60
2018-12-25T03:23:43.660Z,97.90
2018-12-25T03:26:12.093Z,98.20
2018-12-25T03:28:40.537Z,97.60
2018-12-25T03:31:08.967Z,98.00
2018-12-25T03:33:37.491Z,97.70
2018-12-25T03:36:06.028Z,97.60
2018-12-25T03:38:34.495Z,98.00
2018-12-25T03:41:02.952Z,97.80
2018-12-25T03:43:31.373Z,97.90
2018-12-25T03:45:59.813Z,97.90
2018-12-25T03:48:28.344Z,97.90
2018-12-25T03:50:56.845Z,98.00
2018-12-25T03:53:25.284Z,98.40
2018-12-25T03:55:53.738Z,98.40
2018-12-25T03:58:22.175Z,97.80
2018-12-25T04:00:50.735Z,97.80
2018-12-25T04:03:19.194Z,98.00
2018-12-25T04:05:47.733Z,98.10
2018-12-25T04:08:16.343Z,98.40
2018-12-25T04:10:44.768Z,98.60
2018-12-25T04:13:13.224Z,98.70
2018-12-25T04:15:41.656Z,98.60
2018-12-25T04:18:10.084Z,98.40
2018-12-25T04:20:38.533Z,99.00
2018-12-25T04:23:06.961Z,98.80
2018-12-25T04:25:35.392Z,98.80
2018-12-25T04:28:03.848Z,98.70
2018-12-25T04:30:32.280Z,98.80
2018-12-25T04:33:00.710Z,98.80
2018-12-25T04:35:29.180Z,98.80
2018-12-25T04:37:57.612Z,98.90
2018-12-25T04:40:26.036Z,98.80
2018-12-25T04:42:54.512Z,98.60
2018-12-25T04:45:22.973Z,99.40
2018-12-25T04:47:51.410Z,98.60
2018-12-25T04:50:29.000Z,97.80
2018-12-25T04:55:18.371Z,97.30
2018-12-25T04:57:46.877Z,97.70
2018-12-25T05:00:15.392Z,97.80
2018-12-25T05:02:43.816Z,98.00
2018-12-25T05:05:12.268Z,98.40
2018-12-25T05:07:40.694Z,98.00
2018-12-25T05:10:09.142Z,97.90
2018-12-25T05:12:38.490Z,98.10
2018-12-25T05:15:06.961Z,99.00
2018-12-25T05:17:35.447Z,98.20
2018-12-25T05:20:05.028Z,97.90
2018-12-25T05:22:33.456Z,98.00
2018-12-25T05:25:01.900Z,98.20
2018-12-25T05:27:30.332Z,98.60
2018-12-25T05:29:58.780Z,98.10
2018-12-25T05:32:27.212Z,98.00
2018-12-25T05:34:55.717Z,98.10
2018-12-25T05:37:24.240Z,98.30
2018-12-25T05:39:52.806Z,98.40
2018-12-25T05:42:21.328Z,98.60
2018-12-25T05:44:49.775Z,98.40
2018-12-25T05:47:18.212Z,98.30
2018-12-25T05:49:46.642Z,98.40
2018-12-25T05:52:15.086Z,98.90
2018-12-25T05:54:43.585Z,99.50
2018-12-25T05:57:12.039Z,99.30
2018-12-25T05:59:40.566Z,99.10
2018-12-25T06:02:09.099Z,99.20
2018-12-25T06:04:37.526Z,98.70
2018-12-25T06:07:05.953Z,98.30
2018-12-25T06:09:34.409Z,98.20
2018-12-25T06:12:02.842Z,98.20
2018-12-25T06:14:31.261Z,98.20
2018-12-25T06:16:59.704Z,98.10
2018-12-25T06:19:28.145Z,98.40
2018-12-25T06:21:56.600Z,98.70
2018-12-25T06:24:25.044Z,98.90
2018-12-25T06:26:53.511Z,98.90
2018-12-25T06:29:21.964Z,98.80
2018-12-25T06:31:50.400Z,98.70
2018-12-25T06:34:18.989Z,98.60
2018-12-25T06:36:47.424Z,98.50
2018-12-25T06:39:15.856Z,98.40
2018-12-25T06:41:44.304Z,98.10
2018-12-25T06:44:12.730Z,98.10
2018-12-25T06:46:41.200Z,98.20
2018-12-25T06:49:09.652Z,98.30
2018-12-25T06:51:38.085Z,98.40
2018-12-25T06:54:06.526Z,98.70
2018-12-25T06:56:34.957Z,98.40
2018-12-25T06:59:03.397Z,98.20
2018-12-25T07:01:31.837Z,98.40
2018-12-25T07:04:00.287Z,98.40
2018-12-25T07:06:28.726Z,98.60
2018-12-25T07:08:57.172Z,98.50
2018-12-25T07:11:25.604Z,98.60
2018-12-25T07:13:54.048Z,98.70
2018-12-25T07:16:22.491Z,99.10
2018-12-25T07:18:50.948Z,98.20
2018-12-25T07:21:19.401Z,97.50
2018-12-25T07:23:47.841Z,97.70
2018-12-25T07:26:16.371Z,97.80
2018-12-25T07:28:44.817Z,97.70
2018-12-25T07:31:13.290Z,97.70
2018-12-25T07:33:41.717Z,97.80
2018-12-25T07:36:10.167Z,97.50
2018-12-25T07:38:38.600Z,97.80
2018-12-25T07:41:07.058Z,97.70
2018-12-25T07:43:35.493Z,97.20
2018-12-25T07:46:03.919Z,97.60
2018-12-25T07:48:32.425Z,97.80
2018-12-25T07:51:00.927Z,97.70
2018-12-25T07:53:29.359Z,97.70
2018-12-25T07:55:59.580Z,97.20
2018-12-25T07:58:28.004Z,96.30
2018-12-25T08:00:56.473Z,96.40
2018-12-25T08:03:24.927Z,96.50
2018-12-25T08:05:53.577Z,96.40
2018-12-25T08:08:22.144Z,96.60
2018-12-25T08:10:50.580Z,96.70
2018-12-25T08:13:19.037Z,97.20
2018-12-25T08:15:47.496Z,97.20
2018-12-25T08:18:15.944Z,97.60
2018-12-25T08:20:44.398Z,96.30
2018-12-25T08:23:12.828Z,95.70
2018-12-25T08:25:41.267Z,95.60
2018-12-25T08:28:09.730Z,95.30
2018-12-25T08:30:38.160Z,95.00
2018-12-25T08:33:06.602Z,95.20
2018-12-25T08:35:35.178Z,94.80
2018-12-25T08:38:03.631Z,95.40
2018-12-25T08:40:32.072Z,94.80
2018-12-25T08:43:00.504Z,94.50
2018-12-25T08:45:31.874Z,94.20
2018-12-25T08:48:00.301Z,94.30
2018-12-25T08:50:28.748Z,94.90
2018-12-25T08:52:57.260Z,95.00
2018-12-25T08:55:25.709Z,95.10
2018-12-25T08:57:54.962Z,95.30
2018-12-25T09:00:23.738Z,95.30
2018-12-25T09:02:52.242Z,95.60
2018-12-25T09:05:20.681Z,94.80
2018-12-25T09:07:49.218Z,94.60
2018-12-25T09:10:17.727Z,94.10
2018-12-25T09:12:46.330Z,94.00
2018-12-25T09:15:14.812Z,94.70
2018-12-25T09:17:43.306Z,94.40
2018-12-25T09:20:11.959Z,94.50
2018-12-25T09:22:40.451Z,94.70
2018-12-25T09:25:10.761Z,94.70
2018-12-25T09:27:39.225Z,94.20
2018-12-25T09:30:09.281Z,93.50
2018-12-25T09:32:37.728Z,93.90
2018-12-25T09:35:06.226Z,94.10
2018-12-25T09:37:34.693Z,94.20
2018-12-25T09:40:03.866Z,94.20
2018-12-25T09:42:32.284Z,94.40
2018-12-25T09:45:00.725Z,93.50
2018-12-25T09:47:29.164Z,93.80
2018-12-25T09:49:57.589Z,93.10
2018-12-25T09:52:26.032Z,92.90
2018-12-25T09:54:54.459Z,93.00
2018-12-25T09:57:22.965Z,92.30
2018-12-25T09:59:51.414Z,92.60
2018-12-25T10:02:19.839Z,92.80
2018-12-25T10:04:48.284Z,91.80
2018-12-25T10:07:16.725Z,92.50
2018-12-25T10:09:45.178Z,92.40
2018-12-25T10:12:13.598Z,92.40
2018-12-25T10:14:42.036Z,92.40
2018-12-25T10:17:10.469Z,92.30
2018-12-25T10:19:38.917Z,92.10
2018-12-25T10:22:07.353Z,91.80
2018-12-25T10:24:35.787Z,92.40
2018-12-25T10:27:04.214Z,92.10
2018-12-25T10:29:32.650Z,92.50
2018-12-25T10:32:01.072Z,91.70
2018-12-25T10:34:29.630Z,91.10
2018-12-25T10:36:58.119Z,91.20
2018-12-25T10:39:26.545Z,92.00
2018-12-25T10:41:55.037Z,91.80
2018-12-25T10:44:23.488Z,91.90
2018-12-25T10:46:51.929Z,93.00
2018-12-25T10:49:20.621Z,93.80
2018-12-25T10:51:55.311Z,94.20
2018-12-25T10:54:23.789Z,93.90
2018-12-25T10:56:52.224Z,94.30
2018-12-25T10:59:20.684Z,94.30
2018-12-25T11:01:49.116Z,94.20
2018-12-25T11:04:17.567Z,95.00
2018-12-25T11:06:46.095Z,95.20
2018-12-25T11:09:14.546Z,94.70
2018-12-25T11:11:43.010Z,94.50
2018-12-25T11:14:11.433Z,94.50
2018-12-25T11:16:39.887Z,94.00
2018-12-25T11:19:08.302Z,94.00
2018-12-25T11:21:36.735Z,94.00
2018-12-25T11:24:05.173Z,93.90
2018-12-25T11:26:33.601Z,93.60
2018-12-25T11:29:02.042Z,93.80
2018-12-25T11:31:30.475Z,93.90
2018-12-25T11:33:58.910Z,93.90
2018-12-25T11:36:27.336Z,93.80
2018-12-25T11:38:55.787Z,92.80
2018-12-25T11:41:24.205Z,92.50
2018-12-25T11:43:52.644Z,93.20
2018-12-25T11:46:21.080Z,93.10
2018-12-25T11:48:49.536Z,93.30
2018-12-25T11:51:17.974Z,93.20
2018-12-25T11:53:46.496Z,94.10
2018-12-25T11:56:14.930Z,93.40
2018-12-25T11:58:43.451Z,92.80
2018-12-25T12:01:11.877Z,92.50
2018-12-25T12:03:40.328Z,91.70
2018-12-25T12:06:08.749Z,91.20
2018-12-25T12:08:37.176Z,90.90
2018-12-25T12:11:05.620Z,90.70
2018-12-25T12:13:34.052Z,90.50
2018-12-25T12:16:02.472Z,90.20
2018-12-25T12:18:30.916Z,89.50
2018-12-25T12:20:59.344Z,89.70
2018-12-25T12:23:27.761Z,87.60
2018-12-25T12:25:56.216Z,87.20
2018-12-25T12:28:24.716Z,85.40
2018-12-25T12:30:53.225Z,82.60
2018-12-25T12:33:21.689Z,80.80
2018-12-25T12:35:50.213Z,79.30
2018-12-25T12:38:18.714Z,80.80
2018-12-25T12:40:47.234Z,81.10
2018-12-25T12:43:15.716Z,81.80
2018-12-25T12:45:44.258Z,82.80
2018-12-25T12:48:12.688Z,82.20
2018-12-25T12:50:41.119Z,81.20
2018-12-25T12:53:09.568Z,82.10
2018-12-25T12:55:37.990Z,81.90
2018-12-25T12:58:06.413Z,80.70
2018-12-25T13:00:34.862Z,80.60
2018-12-25T13:03:03.346Z,80.50
2018-12-25T13:05:31.870Z,80.00
2018-12-25T13:08:00.363Z,79.80
2018-12-25T13:10:28.792Z,81.60
2018-12-25T13:12:57.367Z,81.90
2018-12-25T13:15:25.861Z,81.10
2018-12-25T13:17:54.288Z,81.40
2018-12-25T13:20:22.756Z,84.00
2018-12-25T13:22:54.244Z,83.20
2018-12-25T13:25:21.397Z,84.50
2018-12-25T13:27:49.862Z,85.70
2018-12-25T13:30:18.431Z,85.00
2018-12-25T13:32:47.005Z,84.50
2018-12-25T13:35:15.449Z,83.50
2018-12-25T13:37:43.892Z,84.30
2018-12-25T13:40:12.328Z,85.30
2018-12-25T13:42:40.776Z,86.20
2018-12-25T13:45:09.201Z,85.30
2018-12-25T13:47:37.696Z,86.90
2018-12-25T13:50:08.685Z,87.00
2018-12-25T13:52:37.116Z,86.90
2018-12-25T13:55:05.820Z,86.80
2018-12-25T13:57:34.272Z,84.80
2018-12-25T14:00:03.170Z,86.60
2018-12-25T14:02:31.588Z,87.70
2018-12-25T14:05:00.033Z,89.20
2018-12-25T14:07:28.456Z,88.90
2018-12-25T14:09:56.973Z,88.80
2018-12-25T14:12:25.408Z,89.40
2018-12-25T14:14:54.055Z,90.00
2018-12-25T14:17:22.459Z,89.80
2018-12-25T14:19:50.919Z,89.70
2018-12-25T14:22:19.369Z,89.80
2018-12-25T14:24:47.801Z,89.70
2018-12-25T14:27:16.357Z,88.00
2018-12-25T14:29:44.781Z,89.80
2018-12-25T14:32:13.200Z,90.10
2018-12-25T14:34:41.734Z,91.10
2018-12-25T14:37:10.148Z,90.80
2018-12-25T14:39:38.646Z,90.40
2018-12-25T14:42:07.084Z,90.80
2018-12-25T14:44:35.551Z,91.40
2018-12-25T14:47:03.999Z,92.00
2018-12-25T14:49:32.428Z,92.10
2018-12-25T14:52:00.939Z,92.20
2018-12-25T14:54:29.376Z,92.40
2018-12-25T14:56:57.819Z,92.50
2018-12-25T14:59:26.256Z,93.00
2018-12-25T15:01:54.681Z,93.00
2018-12-25T15:04:23.136Z,93.40
2018-12-25T15:06:51.614Z,93.60
2018-12-25T15:09:20.039Z,93.80
2018-12-25T15:11:48.485Z,94.10
2018-12-25T15:14:16.914Z,94.30
2018-12-25T15:16:45.433Z,94.00
2018-12-25T15:19:13.981Z,94.40
2018-12-25T15:21:42.492Z,94.30
2018-12-25T15:24:10.951Z,94.40
2018-12-25T15:26:39.486Z,94.50
2018-12-25T15:29:07.937Z,94.30
2018-12-25T15:31:36.369Z,94.80
2018-12-25T15:34:04.919Z,94.60
2018-12-25T15:36:33.417Z,94.60
2018-12-25T15:39:01.874Z,95.20
2018-12-25T15:41:30.376Z,95.10
2018-12-25T15:43:58.822Z,95.00
2018-12-25T15:46:27.248Z,95.20
2018-12-25T15:48:55.696Z,96.00
2018-12-25T15:51:24.124Z,95.80
2018-12-25T15:53:53.317Z,95.90
2018-12-25T15:56:21.744Z,96.10
2018-12-25T15:58:50.184Z,96.10
2018-12-25T16:01:18.617Z,96.20
2018-12-25T16:03:47.062Z,96.60
2018-12-25T16:06:15.507Z,96.90
2018-12-25T16:08:43.952Z,96.90
2018-12-25T16:11:12.379Z,97.20
2018-12-25T16:13:40.807Z,97.70
2018-12-25T16:16:09.271Z,97.40
2018-12-25T16:18:37.703Z,97.80
2018-12-25T16:21:06.156Z,98.10
2018-12-25T16:23:34.656Z,97.90
2018-12-25T16:26:03.112Z,98.00
2018-12-25T16:28:31.616Z,97.70
2018-12-25T16:31:00.064Z,97.50
2018-12-25T16:33:28.503Z,98.10
2018-12-25T16:35:56.953Z,97.20
2018-12-25T16:38:25.381Z,97.50
2018-12-25T16:40:53.828Z,97.60
2018-12-25T16:43:22.252Z,97.70
2018-12-25T16:45:50.706Z,98.00
2018-12-25T16:48:19.141Z,98.60
2018-12-25T16:50:47.613Z,98.70
2018-12-25T16:53:16.080Z,98.70
2018-12-25T16:55:46.193Z,98.30
2018-12-25T16:58:14.728Z,98.00
2018-12-25T17:00:43.156Z,98.10
2018-12-25T17:03:11.588Z,98.30
2018-12-25T17:05:40.107Z,98.40
2018-12-25T17:08:08.548Z,99.20
2018-12-25T17:10:38.102Z,99.20
2018-12-25T17:13:06.553Z,98.70
2018-12-25T17:15:35.065Z,98.60
2018-12-25T17:18:03.498Z,98.70
2018-12-25T17:20:31.949Z,98.70
2018-12-25T17:23:00.387Z,99.00
2018-12-25T17:25:28.819Z,99.30
2018-12-25T17:27:57.265Z,99.20
2018-12-25T17:30:26.365Z,98.70
2018-12-25T17:32:55.653Z,98.70
2018-12-25T17:35:24.317Z,98.40
2018-12-25T17:37:52.745Z,98.70
2018-12-25T17:40:21.195Z,98.70
2018-12-25T17:42:49.628Z,98.70
2018-12-25T17:45:18.076Z,98.60
2018-12-25T17:47:46.543Z,98.90
2018-12-25T17:50:15.025Z,99.00
2018-12-25T17:52:43.463Z,99.00
2018-12-25T17:55:11.995Z,99.00
2018-12-25T17:57:40.496Z,99.00
2018-12-25T18:00:08.933Z,99.60
2018-12-25T18:02:37.392Z,98.70
2018-12-25T18:05:11.855Z,98.90
2018-12-25T18:07:35.971Z,99.30
2018-12-25T18:10:04.656Z,98.90
2018-12-25T18:12:33.099Z,98.30
2018-12-25T18:15:01.545Z,97.70
2018-12-25T18:17:29.997Z,98.10
2018-12-25T18:19:58.439Z,98.00
2018-12-25T18:22:26.889Z,98.00
2018-12-25T18:24:55.344Z,98.60
2018-12-25T18:27:25.576Z,98.20
2018-12-25T18:29:54.024Z,98.10
2018-12-25T18:32:22.484Z,98.50
2018-12-25T18:34:50.911Z,98.20
2018-12-25T18:37:19.357Z,98.20
2018-12-25T18:39:54.874Z,98.70
2018-12-25T18:42:23.465Z,99.00
2018-12-25T18:44:52.130Z,98.40
2018-12-25T18:47:20.624Z,98.00
2018-12-25T18:49:49.078Z,97.70
2018-12-25T18:52:17.588Z,98.00
2018-12-25T18:54:46.068Z,97.90
2018-12-25T18:57:14.503Z,98.10
2018-12-25T18:59:42.931Z,98.60
2018-12-25T19:02:11.388Z,98.20
2018-12-25T19:04:39.823Z,97.80
2018-12-25T19:07:08.260Z,97.90
2018-12-25T19:09:36.713Z,97.90
2018-12-25T19:12:05.159Z,98.10
2018-12-25T19:14:34.252Z,98.90
2018-12-25T19:17:02.700Z,98.40
2018-12-25T19:19:31.156Z,98.00
2018-12-25T19:21:59.616Z,98.10
2018-12-25T19:24:36.110Z,98.10
2018-12-25T19:26:58.211Z,98.20
2018-12-25T19:29:26.677Z,98.40
2018-12-25T19:31:55.104Z,99.10
2018-12-25T19:34:23.537Z,98.80
2018-12-25T19:36:51.984Z,99.10
2018-12-25T19:39:20.443Z,99.90
2018-12-25T19:41:48.953Z,99.50
2018-12-25T19:44:17.412Z,99.30
2018-12-25T19:46:45.852Z,99.40
2018-12-25T19:49:14.280Z,99.50
2018-12-25T19:51:42.732Z,99.20
2018-12-25T19:54:11.310Z,99.10
2018-12-25T19:56:39.737Z,99.20
2018-12-25T19:59:08.256Z,99.00
2018-12-25T20:01:36.763Z,99.00
2018-12-25T20:04:07.909Z,99.10
2018-12-25T20:07:02.222Z,99.20
2018-12-25T20:09:45.689Z,99.30
2018-12-25T20:12:39.673Z,99.40
2018-12-25T20:15:29.056Z,99.30
2018-12-25T20:18:09.812Z,98.70
2018-12-25T20:21:13.160Z,98.60
2018-12-25T20:23:59.973Z,98.60
2018-12-25T20:26:37.058Z,98.60
2018-12-25T20:29:31.308Z,98.90
2018-12-25T20:32:20.986Z,99.40
2018-12-25T20:35:14.903Z,99.50
2018-12-25T20:37:51.853Z,99.00
2018-12-25T20:40:32.296Z,99.00
2018-12-25T20:43:12.000Z,99.10
2018-12-25T20:45:46.600Z,99.30
2018-12-25T20:48:51.760Z,99.20
2018-12-25T20:51:41.288Z,99.20
2018-12-25T20:54:30.653Z,99.20
2018-12-25T20:57:11.064Z,99.50
2018-12-25T21:00:07.635Z,99.90
2018-12-25T21:02:39.164Z,99.90
2018-12-25T21:05:25.730Z,99.50
2018-12-25T21:08:13.596Z,99.60
2018-12-25T21:10:50.820Z,99.70
2018-12-25T21:13:49.580Z,99.90
2018-12-25T21:16:36.112Z,99.70
2018-12-25T21:19:40.839Z,99.20
2018-12-25T21:22:24.512Z,99.70
2018-12-25T21:25:29.207Z,99.60
2018-12-25T21:27:56.640Z,99.40
2018-12-25T21:30:26.116Z,99.90
2018-12-25T21:32:54.807Z,99.90
2018-12-25T21:35:23.508Z,99.90
2018-12-25T21:37:52.295Z,99.50
2018-12-25T21:40:20.963Z,99.10
2018-12-25T21:42:50.692Z,98.70
2018-12-25T21:45:19.369Z,98.00
2018-12-25T21:47:47.824Z,97.80
2018-12-25T21:50:16.696Z,98.00
2018-12-25T21:52:45.376Z,97.60
2018-12-25T21:55:18.553Z,97.60
2018-12-25T21:57:44.668Z,97.20
2018-12-25T22:00:13.672Z,97.30
2018-12-25T22:02:42.191Z,98.10
2018-12-25T22:05:10.708Z,98.40
2018-12-25T22:07:39.330Z,98.20
2018-12-25T22:10:08.099Z,98.00
2018-12-25T22:12:36.525Z,97.60
2018-12-25T22:15:07.021Z,97.50
2018-12-25T22:17:35.528Z,97.60
2018-12-25T22:20:07.060Z,97.60
2018-12-25T22:22:35.485Z,98.10
2018-12-25T22:25:04.042Z,97.80
2018-12-25T22:27:32.482Z,98.00
2018-12-25T22:30:00.932Z,97.90
2018-12-25T22:32:29.397Z,98.00
2018-12-25T22:34:57.873Z,97.60
2018-12-25T22:37:26.300Z,97.70
2018-12-25T22:39:54.732Z,97.70
2018-12-25T22:42:23.188Z,97.70
2018-12-25T22:44:51.621Z,97.90
2018-12-25T22:47:20.072Z,97.80
2018-12-25T22:49:48.509Z,98.60
2018-12-25T22:52:16.948Z,98.10
2018-12-25T22:54:45.472Z,97.80
2018-12-25T22:57:13.912Z,97.90
2018-12-25T22:59:42.374Z,97.50
2018-12-25T23:02:10.896Z,97.40
2018-12-25T23:04:39.352Z,97.20
2018-12-25T23:07:07.856Z,97.40
2018-12-25T23:09:36.309Z,97.10
2018-12-25T23:12:04.746Z,97.20
2018-12-25T23:14:33.192Z,97.20
2018-12-25T23:17:01.636Z,97.50
2018-12-25T23:19:30.088Z,98.30
2018-12-25T23:21:58.520Z,98.10
2018-12-25T23:24:26.955Z,97.60
2018-12-25T23:26:55.412Z,98.00
2018-12-25T23:29:23.912Z,97.90
2018-12-25T23:31:52.470Z,98.20
2018-12-25T23:34:20.980Z,98.30
2018-12-25T23:36:49.414Z,98.30
2018-12-25T23:39:17.943Z,98.50
2018-12-25T23:41:46.376Z,98.50
2018-12-25T23:44:14.810Z,98.20
2018-12-25T23:46:43.260Z,98.10
2018-12-25T23:49:11.779Z,98.00
2018-12-25T23:51:40.218Z,98.00
2018-12-25T23:54:08.677Z,97.50
2018-12-25T23:56:37.109Z,97.80
2018-12-25T23:59:05.558Z,97.70
